sensor_id;sensor_type;location;lat;lon;timestamp;temperature;humidity
21602;DHT22;10963;50.934;4.668;2023-12-20T00:00:23;7.60;99.90
21602;DHT22;10963;50.934;4.668;2023-12-20T00:02:51;7.60;99.90
21602;DHT22;10963;50.934;4.668;2023-12-20T00:05:17;7.50;99.90
21602;DHT22;10963;50.934;4.668;2023-12-20T00:07:43;7.40;99.90
21602;DHT22;10963;50.934;4.668;2023-12-20T00:10:09;7.30;99.90
21602;DHT22;10963;50.934;4.668;2023-12-20T00:12:34;7.50;99.90
21602;DHT22;10963;50.934;4.668;2023-12-20T00:15:05;7.40;99.90
21602;DHT22;10963;50.934;4.668;2023-12-20T00:17:30;7.20;99.90
21602;DHT22;10963;50.934;4.668;2023-12-20T00:19:56;7.30;99.90
21602;DHT22;10963;50.934;4.668;2023-12-20T00:22:24;7.30;99.90
21602;DHT22;10963;50.934;4.668;2023-12-20T00:24:52;7.30;99.90
21602;DHT22;10963;50.934;4.668;2023-12-20T00:27:18;7.30;99.90
21602;DHT22;10963;50.934;4.668;2023-12-20T00:29:43;7.40;99.90
21602;DHT22;10963;50.934;4.668;2023-12-20T00:32:13;7.50;99.90
21602;DHT22;10963;50.934;4.668;2023-12-20T00:34:39;7.50;99.90
21602;DHT22;10963;50.934;4.668;2023-12-20T00:37:07;7.40;99.90
21602;DHT22;10963;50.934;4.668;2023-12-20T00:39:33;7.30;99.90
21602;DHT22;10963;50.934;4.668;2023-12-20T00:41:58;7.20;99.90
21602;DHT22;10963;50.934;4.668;2023-12-20T00:44:26;7.20;99.90
21602;DHT22;10963;50.934;4.668;2023-12-20T00:46:54;7.30;99.90
21602;DHT22;10963;50.934;4.668;2023-12-20T00:49:22;7.40;99.90
21602;DHT22;10963;50.934;4.668;2023-12-20T00:51:50;7.40;99.90
21602;DHT22;10963;50.934;4.668;2023-12-20T00:54:18;7.40;99.90
21602;DHT22;10963;50.934;4.668;2023-12-20T00:56:44;7.30;99.90
21602;DHT22;10963;50.934;4.668;2023-12-20T00:59:12;7.40;99.90
21602;DHT22;10963;50.934;4.668;2023-12-20T01:01:37;7.30;99.90
21602;DHT22;10963;50.934;4.668;2023-12-20T01:04:04;7.20;99.90
21602;DHT22;10963;50.934;4.668;2023-12-20T01:06:29;7.10;99.90
21602;DHT22;10963;50.934;4.668;2023-12-20T01:08:55;7.10;99.90
21602;DHT22;10963;50.934;4.668;2023-12-20T01:11:23;7.00;99.90
21602;DHT22;10963;50.934;4.668;2023-12-20T01:13:49;7.00;99.90
21602;DHT22;10963;50.934;4.668;2023-12-20T01:16:14;7.00;99.90
21602;DHT22;10963;50.934;4.668;2023-12-20T01:18:42;7.00;99.90
21602;DHT22;10963;50.934;4.668;2023-12-20T01:21:08;7.00;99.90
21602;DHT22;10963;50.934;4.668;2023-12-20T01:23:34;7.00;99.90
21602;DHT22;10963;50.934;4.668;2023-12-20T01:26:02;7.00;99.90
21602;DHT22;10963;50.934;4.668;2023-12-20T01:28:30;7.00;99.90
21602;DHT22;10963;50.934;4.668;2023-12-20T01:30:59;7.00;99.90
21602;DHT22;10963;50.934;4.668;2023-12-20T01:33:24;7.00;99.90
21602;DHT22;10963;50.934;4.668;2023-12-20T01:35:50;7.00;99.90
21602;DHT22;10963;50.934;4.668;2023-12-20T01:38:16;6.90;99.90
21602;DHT22;10963;50.934;4.668;2023-12-20T01:40:44;6.90;99.90
21602;DHT22;10963;50.934;4.668;2023-12-20T01:43:12;6.90;99.90
21602;DHT22;10963;50.934;4.668;2023-12-20T01:45:38;6.90;99.90
21602;DHT22;10963;50.934;4.668;2023-12-20T01:48:05;6.90;99.90
21602;DHT22;10963;50.934;4.668;2023-12-20T01:50:31;6.80;99.90
21602;DHT22;10963;50.934;4.668;2023-12-20T01:53:01;6.70;99.90
21602;DHT22;10963;50.934;4.668;2023-12-20T01:55:32;6.70;99.90
21602;DHT22;10963;50.934;4.668;2023-12-20T01:57:59;6.80;99.90
21602;DHT22;10963;50.934;4.668;2023-12-20T02:00:27;6.70;99.90
21602;DHT22;10963;50.934;4.668;2023-12-20T02:02:54;6.80;99.90
21602;DHT22;10963;50.934;4.668;2023-12-20T02:05:25;6.90;99.90
21602;DHT22;10963;50.934;4.668;2023-12-20T02:07:53;6.90;99.90
21602;DHT22;10963;50.934;4.668;2023-12-20T02:10:21;6.90;99.90
21602;DHT22;10963;50.934;4.668;2023-12-20T02:12:50;6.80;99.90
21602;DHT22;10963;50.934;4.668;2023-12-20T02:15:15;6.70;99.90
21602;DHT22;10963;50.934;4.668;2023-12-20T02:17:45;6.70;99.90
21602;DHT22;10963;50.934;4.668;2023-12-20T02:20:12;6.70;99.90
21602;DHT22;10963;50.934;4.668;2023-12-20T02:22:37;6.70;99.90
21602;DHT22;10963;50.934;4.668;2023-12-20T02:25:06;6.70;99.90
21602;DHT22;10963;50.934;4.668;2023-12-20T02:27:31;6.70;99.90
21602;DHT22;10963;50.934;4.668;2023-12-20T02:29:59;6.60;99.90
21602;DHT22;10963;50.934;4.668;2023-12-20T02:32:25;6.60;99.90
21602;DHT22;10963;50.934;4.668;2023-12-20T02:34:55;6.70;99.90
21602;DHT22;10963;50.934;4.668;2023-12-20T02:37:21;6.70;99.90
21602;DHT22;10963;50.934;4.668;2023-12-20T02:39:49;6.70;99.90
21602;DHT22;10963;50.934;4.668;2023-12-20T02:42:19;6.80;99.90
21602;DHT22;10963;50.934;4.668;2023-12-20T02:44:45;6.90;99.90
21602;DHT22;10963;50.934;4.668;2023-12-20T02:47:11;7.00;99.90
21602;DHT22;10963;50.934;4.668;2023-12-20T02:49:36;7.00;99.90
21602;DHT22;10963;50.934;4.668;2023-12-20T02:52:02;7.00;99.90
21602;DHT22;10963;50.934;4.668;2023-12-20T02:54:28;7.10;99.90
21602;DHT22;10963;50.934;4.668;2023-12-20T02:56:54;7.20;99.90
21602;DHT22;10963;50.934;4.668;2023-12-20T02:59:22;7.20;99.90
21602;DHT22;10963;50.934;4.668;2023-12-20T03:01:50;7.30;99.90
21602;DHT22;10963;50.934;4.668;2023-12-20T03:04:16;7.30;99.90
21602;DHT22;10963;50.934;4.668;2023-12-20T03:06:44;7.40;99.90
21602;DHT22;10963;50.934;4.668;2023-12-20T03:09:10;7.30;99.90
21602;DHT22;10963;50.934;4.668;2023-12-20T03:11:40;7.30;99.90
21602;DHT22;10963;50.934;4.668;2023-12-20T03:14:08;7.30;99.90
21602;DHT22;10963;50.934;4.668;2023-12-20T03:16:34;7.30;99.90
21602;DHT22;10963;50.934;4.668;2023-12-20T03:19:00;7.30;99.90
21602;DHT22;10963;50.934;4.668;2023-12-20T03:21:28;7.20;99.90
21602;DHT22;10963;50.934;4.668;2023-12-20T03:23:56;7.10;99.90
21602;DHT22;10963;50.934;4.668;2023-12-20T03:26:21;7.10;99.90
21602;DHT22;10963;50.934;4.668;2023-12-20T03:28:48;7.20;99.90
21602;DHT22;10963;50.934;4.668;2023-12-20T03:31:14;7.30;99.90
21602;DHT22;10963;50.934;4.668;2023-12-20T03:33:42;7.30;99.90
21602;DHT22;10963;50.934;4.668;2023-12-20T03:36:08;7.30;99.90
21602;DHT22;10963;50.934;4.668;2023-12-20T03:38:33;7.40;99.90
21602;DHT22;10963;50.934;4.668;2023-12-20T03:40:59;7.40;99.90
21602;DHT22;10963;50.934;4.668;2023-12-20T03:43:28;7.40;99.90
21602;DHT22;10963;50.934;4.668;2023-12-20T03:45:53;7.30;99.90
21602;DHT22;10963;50.934;4.668;2023-12-20T03:48:19;7.40;99.90
21602;DHT22;10963;50.934;4.668;2023-12-20T03:50:45;7.30;99.90
21602;DHT22;10963;50.934;4.668;2023-12-20T03:53:10;7.30;99.90
21602;DHT22;10963;50.934;4.668;2023-12-20T03:55:36;7.30;99.90
21602;DHT22;10963;50.934;4.668;2023-12-20T03:58:04;7.60;99.90
21602;DHT22;10963;50.934;4.668;2023-12-20T04:00:32;7.60;99.90
21602;DHT22;10963;50.934;4.668;2023-12-20T04:03:00;7.50;99.90
21602;DHT22;10963;50.934;4.668;2023-12-20T04:05:28;7.40;99.90
21602;DHT22;10963;50.934;4.668;2023-12-20T04:07:54;7.50;99.90
21602;DHT22;10963;50.934;4.668;2023-12-20T04:10:20;7.50;99.90
21602;DHT22;10963;50.934;4.668;2023-12-20T04:12:48;7.50;99.90
21602;DHT22;10963;50.934;4.668;2023-12-20T04:15:16;7.50;99.90
21602;DHT22;10963;50.934;4.668;2023-12-20T04:17:44;7.40;99.90
21602;DHT22;10963;50.934;4.668;2023-12-20T04:20:12;7.30;99.90
21602;DHT22;10963;50.934;4.668;2023-12-20T04:22:38;7.10;99.90
21602;DHT22;10963;50.934;4.668;2023-12-20T04:25:04;7.00;99.90
21602;DHT22;10963;50.934;4.668;2023-12-20T04:27:29;7.00;99.90
21602;DHT22;10963;50.934;4.668;2023-12-20T04:29:55;7.00;99.90
21602;DHT22;10963;50.934;4.668;2023-12-20T04:32:21;7.00;99.90
21602;DHT22;10963;50.934;4.668;2023-12-20T04:34:52;7.00;99.90
21602;DHT22;10963;50.934;4.668;2023-12-20T04:37:20;7.10;99.90
21602;DHT22;10963;50.934;4.668;2023-12-20T04:39:46;7.00;99.90
21602;DHT22;10963;50.934;4.668;2023-12-20T04:42:12;7.20;99.90
21602;DHT22;10963;50.934;4.668;2023-12-20T04:44:39;7.20;99.90
21602;DHT22;10963;50.934;4.668;2023-12-20T04:47:08;7.20;99.90
21602;DHT22;10963;50.934;4.668;2023-12-20T04:49:36;7.20;99.90
21602;DHT22;10963;50.934;4.668;2023-12-20T04:52:02;7.10;99.90
21602;DHT22;10963;50.934;4.668;2023-12-20T04:54:27;7.20;99.90
21602;DHT22;10963;50.934;4.668;2023-12-20T04:56:55;7.10;99.90
21602;DHT22;10963;50.934;4.668;2023-12-20T04:59:23;7.20;99.90
21602;DHT22;10963;50.934;4.668;2023-12-20T05:01:51;7.10;99.90
21602;DHT22;10963;50.934;4.668;2023-12-20T05:04:17;7.10;99.90
21602;DHT22;10963;50.934;4.668;2023-12-20T05:06:43;7.00;99.90
21602;DHT22;10963;50.934;4.668;2023-12-20T05:09:08;6.90;99.90
21602;DHT22;10963;50.934;4.668;2023-12-20T05:11:36;6.90;99.90
21602;DHT22;10963;50.934;4.668;2023-12-20T05:14:05;6.90;99.90
21602;DHT22;10963;50.934;4.668;2023-12-20T05:16:33;6.80;99.90
21602;DHT22;10963;50.934;4.668;2023-12-20T05:18:58;6.80;99.90
21602;DHT22;10963;50.934;4.668;2023-12-20T05:21:32;6.90;99.90
21602;DHT22;10963;50.934;4.668;2023-12-20T05:23:59;6.80;99.90
21602;DHT22;10963;50.934;4.668;2023-12-20T05:26:30;6.70;99.90
21602;DHT22;10963;50.934;4.668;2023-12-20T05:28:58;6.80;99.90
21602;DHT22;10963;50.934;4.668;2023-12-20T05:31:26;6.80;99.90
21602;DHT22;10963;50.934;4.668;2023-12-20T05:33:54;6.70;99.90
21602;DHT22;10963;50.934;4.668;2023-12-20T05:36:20;6.70;99.90
21602;DHT22;10963;50.934;4.668;2023-12-20T05:38:45;6.70;99.90
21602;DHT22;10963;50.934;4.668;2023-12-20T05:41:11;6.70;99.90
21602;DHT22;10963;50.934;4.668;2023-12-20T05:43:37;6.70;99.90
21602;DHT22;10963;50.934;4.668;2023-12-20T05:46:03;6.60;99.90
21602;DHT22;10963;50.934;4.668;2023-12-20T05:48:28;6.60;99.90
21602;DHT22;10963;50.934;4.668;2023-12-20T05:50:57;6.70;99.90
21602;DHT22;10963;50.934;4.668;2023-12-20T05:53:23;6.60;99.90
21602;DHT22;10963;50.934;4.668;2023-12-20T05:55:49;6.60;99.90
21602;DHT22;10963;50.934;4.668;2023-12-20T05:58:14;6.70;99.90
21602;DHT22;10963;50.934;4.668;2023-12-20T06:00:40;6.70;99.90
21602;DHT22;10963;50.934;4.668;2023-12-20T06:03:06;6.70;99.90
21602;DHT22;10963;50.934;4.668;2023-12-20T06:05:31;6.70;99.90
21602;DHT22;10963;50.934;4.668;2023-12-20T06:07:57;6.70;99.90
21602;DHT22;10963;50.934;4.668;2023-12-20T06:10:27;6.70;99.90
21602;DHT22;10963;50.934;4.668;2023-12-20T06:12:55;6.70;99.90
21602;DHT22;10963;50.934;4.668;2023-12-20T06:15:21;6.70;99.90
21602;DHT22;10963;50.934;4.668;2023-12-20T06:17:49;6.70;99.90
21602;DHT22;10963;50.934;4.668;2023-12-20T06:20:17;6.90;99.90
21602;DHT22;10963;50.934;4.668;2023-12-20T06:22:45;6.90;99.90
21602;DHT22;10963;50.934;4.668;2023-12-20T06:25:11;6.80;99.90
21602;DHT22;10963;50.934;4.668;2023-12-20T06:27:37;6.90;99.90
21602;DHT22;10963;50.934;4.668;2023-12-20T06:30:05;6.90;99.90
21602;DHT22;10963;50.934;4.668;2023-12-20T06:32:31;7.00;99.90
21602;DHT22;10963;50.934;4.668;2023-12-20T06:34:57;7.00;99.90
21602;DHT22;10963;50.934;4.668;2023-12-20T06:37:25;7.00;99.90
21602;DHT22;10963;50.934;4.668;2023-12-20T06:39:51;7.00;99.90
21602;DHT22;10963;50.934;4.668;2023-12-20T06:42:16;7.00;99.90
21602;DHT22;10963;50.934;4.668;2023-12-20T06:44:44;7.00;99.90
21602;DHT22;10963;50.934;4.668;2023-12-20T06:47:10;6.90;99.90
21602;DHT22;10963;50.934;4.668;2023-12-20T06:49:36;6.90;99.90
21602;DHT22;10963;50.934;4.668;2023-12-20T06:52:01;6.90;99.90
21602;DHT22;10963;50.934;4.668;2023-12-20T06:54:30;6.80;99.90
21602;DHT22;10963;50.934;4.668;2023-12-20T06:56:55;6.60;99.90
21602;DHT22;10963;50.934;4.668;2023-12-20T06:59:21;6.50;99.90
21602;DHT22;10963;50.934;4.668;2023-12-20T07:01:52;6.40;99.90
21602;DHT22;10963;50.934;4.668;2023-12-20T07:04:18;6.40;99.90
21602;DHT22;10963;50.934;4.668;2023-12-20T07:06:46;6.40;99.90
21602;DHT22;10963;50.934;4.668;2023-12-20T07:09:16;6.40;99.90
21602;DHT22;10963;50.934;4.668;2023-12-20T07:11:44;6.40;99.90
21602;DHT22;10963;50.934;4.668;2023-12-20T07:14:10;6.40;99.90
21602;DHT22;10963;50.934;4.668;2023-12-20T07:16:36;6.40;99.90
21602;DHT22;10963;50.934;4.668;2023-12-20T07:19:04;6.30;99.90
21602;DHT22;10963;50.934;4.668;2023-12-20T07:21:30;6.30;99.90
21602;DHT22;10963;50.934;4.668;2023-12-20T07:23:55;6.30;99.90
21602;DHT22;10963;50.934;4.668;2023-12-20T07:26:21;6.30;99.90
21602;DHT22;10963;50.934;4.668;2023-12-20T07:28:49;6.30;99.90
21602;DHT22;10963;50.934;4.668;2023-12-20T07:31:21;6.20;99.90
21602;DHT22;10963;50.934;4.668;2023-12-20T07:33:47;6.20;99.90
21602;DHT22;10963;50.934;4.668;2023-12-20T07:36:12;6.30;99.90
21602;DHT22;10963;50.934;4.668;2023-12-20T07:38:38;6.10;99.90
21602;DHT22;10963;50.934;4.668;2023-12-20T07:41:04;6.10;99.90
21602;DHT22;10963;50.934;4.668;2023-12-20T07:43:30;6.20;99.90
21602;DHT22;10963;50.934;4.668;2023-12-20T07:45:56;6.20;99.90
21602;DHT22;10963;50.934;4.668;2023-12-20T07:48:21;6.20;99.90
21602;DHT22;10963;50.934;4.668;2023-12-20T07:50:47;6.10;99.90
21602;DHT22;10963;50.934;4.668;2023-12-20T07:53:13;6.10;99.90
21602;DHT22;10963;50.934;4.668;2023-12-20T07:55:41;6.10;99.90
21602;DHT22;10963;50.934;4.668;2023-12-20T07:58:13;6.10;99.90
21602;DHT22;10963;50.934;4.668;2023-12-20T08:00:38;6.10;99.90
21602;DHT22;10963;50.934;4.668;2023-12-20T08:03:04;6.10;99.90
21602;DHT22;10963;50.934;4.668;2023-12-20T08:05:30;6.00;99.90
21602;DHT22;10963;50.934;4.668;2023-12-20T08:07:56;6.10;99.90
21602;DHT22;10963;50.934;4.668;2023-12-20T08:10:24;6.00;99.90
21602;DHT22;10963;50.934;4.668;2023-12-20T08:12:50;6.10;99.90
21602;DHT22;10963;50.934;4.668;2023-12-20T08:15:15;6.00;99.90
21602;DHT22;10963;50.934;4.668;2023-12-20T08:17:41;6.10;99.90
21602;DHT22;10963;50.934;4.668;2023-12-20T08:20:07;6.20;99.90
21602;DHT22;10963;50.934;4.668;2023-12-20T08:22:33;6.20;99.90
21602;DHT22;10963;50.934;4.668;2023-12-20T08:24:59;6.20;99.90
21602;DHT22;10963;50.934;4.668;2023-12-20T08:27:24;6.20;99.90
21602;DHT22;10963;50.934;4.668;2023-12-20T08:29:51;6.20;99.90
21602;DHT22;10963;50.934;4.668;2023-12-20T08:32:17;6.40;99.90
21602;DHT22;10963;50.934;4.668;2023-12-20T08:34:44;6.50;99.90
21602;DHT22;10963;50.934;4.668;2023-12-20T08:37:10;6.60;99.90
21602;DHT22;10963;50.934;4.668;2023-12-20T08:39:36;6.60;99.90
21602;DHT22;10963;50.934;4.668;2023-12-20T08:42:04;6.60;99.90
21602;DHT22;10963;50.934;4.668;2023-12-20T08:44:32;6.70;99.90
21602;DHT22;10963;50.934;4.668;2023-12-20T08:46:58;6.80;99.90
21602;DHT22;10963;50.934;4.668;2023-12-20T08:49:24;6.90;99.90
21602;DHT22;10963;50.934;4.668;2023-12-20T08:51:51;6.90;99.90
21602;DHT22;10963;50.934;4.668;2023-12-20T08:54:16;7.00;99.90
21602;DHT22;10963;50.934;4.668;2023-12-20T08:56:45;7.00;99.90
21602;DHT22;10963;50.934;4.668;2023-12-20T08:59:11;6.90;99.90
21602;DHT22;10963;50.934;4.668;2023-12-20T09:01:40;6.90;99.90
21602;DHT22;10963;50.934;4.668;2023-12-20T09:04:08;6.80;99.90
21602;DHT22;10963;50.934;4.668;2023-12-20T09:06:36;6.80;99.90
21602;DHT22;10963;50.934;4.668;2023-12-20T09:09:02;6.90;99.90
21602;DHT22;10963;50.934;4.668;2023-12-20T09:11:28;6.90;99.90
21602;DHT22;10963;50.934;4.668;2023-12-20T09:13:56;7.00;99.90
21602;DHT22;10963;50.934;4.668;2023-12-20T09:16:22;7.00;99.90
21602;DHT22;10963;50.934;4.668;2023-12-20T09:18:50;7.00;99.90
21602;DHT22;10963;50.934;4.668;2023-12-20T09:21:17;7.00;99.90
21602;DHT22;10963;50.934;4.668;2023-12-20T09:23:45;7.00;99.90
21602;DHT22;10963;50.934;4.668;2023-12-20T09:26:11;7.00;99.90
21602;DHT22;10963;50.934;4.668;2023-12-20T09:28:39;7.10;99.90
21602;DHT22;10963;50.934;4.668;2023-12-20T09:31:06;7.10;99.90
21602;DHT22;10963;50.934;4.668;2023-12-20T09:33:34;7.20;99.90
21602;DHT22;10963;50.934;4.668;2023-12-20T09:36:02;7.30;99.90
21602;DHT22;10963;50.934;4.668;2023-12-20T09:38:28;7.20;99.90
21602;DHT22;10963;50.934;4.668;2023-12-20T09:40:54;7.30;99.90
21602;DHT22;10963;50.934;4.668;2023-12-20T09:43:24;7.20;99.90
21602;DHT22;10963;50.934;4.668;2023-12-20T09:45:53;7.30;99.90
21602;DHT22;10963;50.934;4.668;2023-12-20T09:48:19;7.40;99.90
21602;DHT22;10963;50.934;4.668;2023-12-20T09:50:46;7.30;99.90
21602;DHT22;10963;50.934;4.668;2023-12-20T09:53:15;7.40;99.90
21602;DHT22;10963;50.934;4.668;2023-12-20T09:55:41;7.50;99.90
21602;DHT22;10963;50.934;4.668;2023-12-20T09:58:08;7.50;99.90
21602;DHT22;10963;50.934;4.668;2023-12-20T10:00:37;7.70;99.90
21602;DHT22;10963;50.934;4.668;2023-12-20T10:03:06;7.90;99.90
21602;DHT22;10963;50.934;4.668;2023-12-20T10:05:33;7.90;99.90
21602;DHT22;10963;50.934;4.668;2023-12-20T10:08:01;8.00;99.90
21602;DHT22;10963;50.934;4.668;2023-12-20T10:10:28;8.00;99.90
21602;DHT22;10963;50.934;4.668;2023-12-20T10:13:10;8.10;99.90
21602;DHT22;10963;50.934;4.668;2023-12-20T10:15:39;8.20;99.90
21602;DHT22;10963;50.934;4.668;2023-12-20T10:18:06;8.30;99.90
21602;DHT22;10963;50.934;4.668;2023-12-20T10:20:35;8.30;99.90
21602;DHT22;10963;50.934;4.668;2023-12-20T10:23:03;8.20;99.90
21602;DHT22;10963;50.934;4.668;2023-12-20T10:25:29;8.30;99.90
21602;DHT22;10963;50.934;4.668;2023-12-20T10:28:15;8.50;99.90
21602;DHT22;10963;50.934;4.668;2023-12-20T10:30:48;8.50;99.90
21602;DHT22;10963;50.934;4.668;2023-12-20T10:33:15;8.50;99.90
21602;DHT22;10963;50.934;4.668;2023-12-20T10:35:48;8.40;99.90
21602;DHT22;10963;50.934;4.668;2023-12-20T10:38:14;8.40;99.90
21602;DHT22;10963;50.934;4.668;2023-12-20T10:40:40;8.40;99.90
21602;DHT22;10963;50.934;4.668;2023-12-20T10:43:11;8.50;99.90
21602;DHT22;10963;50.934;4.668;2023-12-20T10:45:37;8.60;99.90
21602;DHT22;10963;50.934;4.668;2023-12-20T10:48:04;8.50;99.90
21602;DHT22;10963;50.934;4.668;2023-12-20T10:50:32;8.60;99.90
21602;DHT22;10963;50.934;4.668;2023-12-20T10:52:58;8.60;99.90
21602;DHT22;10963;50.934;4.668;2023-12-20T10:55:25;8.50;99.90
21602;DHT22;10963;50.934;4.668;2023-12-20T10:57:51;8.60;99.90
21602;DHT22;10963;50.934;4.668;2023-12-20T11:00:18;8.70;99.90
21602;DHT22;10963;50.934;4.668;2023-12-20T11:02:49;8.90;99.90
21602;DHT22;10963;50.934;4.668;2023-12-20T11:08:20;8.90;99.90
21602;DHT22;10963;50.934;4.668;2023-12-20T11:13:36;9.10;99.90
21602;DHT22;10963;50.934;4.668;2023-12-20T11:16:03;9.20;99.90
21602;DHT22;10963;50.934;4.668;2023-12-20T11:18:31;9.30;99.90
21602;DHT22;10963;50.934;4.668;2023-12-20T11:21:04;9.30;99.90
21602;DHT22;10963;50.934;4.668;2023-12-20T11:23:32;9.30;99.90
21602;DHT22;10963;50.934;4.668;2023-12-20T11:26:02;9.40;99.90
21602;DHT22;10963;50.934;4.668;2023-12-20T11:28:30;9.50;99.90
21602;DHT22;10963;50.934;4.668;2023-12-20T11:31:01;9.50;99.90
21602;DHT22;10963;50.934;4.668;2023-12-20T11:33:30;9.50;99.90
21602;DHT22;10963;50.934;4.668;2023-12-20T11:35:57;9.30;99.90
21602;DHT22;10963;50.934;4.668;2023-12-20T11:38:26;9.40;99.90
21602;DHT22;10963;50.934;4.668;2023-12-20T11:40:54;9.40;99.90
21602;DHT22;10963;50.934;4.668;2023-12-20T11:43:52;9.40;99.90
21602;DHT22;10963;50.934;4.668;2023-12-20T11:46:18;9.40;99.90
21602;DHT22;10963;50.934;4.668;2023-12-20T11:48:47;9.60;99.90
21602;DHT22;10963;50.934;4.668;2023-12-20T11:51:13;9.60;99.90
21602;DHT22;10963;50.934;4.668;2023-12-20T11:53:40;9.70;99.90
21602;DHT22;10963;50.934;4.668;2023-12-20T11:56:10;9.70;99.90
21602;DHT22;10963;50.934;4.668;2023-12-20T11:58:36;9.80;99.90
21602;DHT22;10963;50.934;4.668;2023-12-20T12:01:02;9.80;99.90
21602;DHT22;10963;50.934;4.668;2023-12-20T12:03:29;9.80;99.90
21602;DHT22;10963;50.934;4.668;2023-12-20T12:05:56;9.70;99.90
21602;DHT22;10963;50.934;4.668;2023-12-20T12:08:26;9.70;99.90
21602;DHT22;10963;50.934;4.668;2023-12-20T12:10:54;9.50;99.90
21602;DHT22;10963;50.934;4.668;2023-12-20T12:13:19;9.50;99.90
21602;DHT22;10963;50.934;4.668;2023-12-20T12:15:45;9.50;99.90
21602;DHT22;10963;50.934;4.668;2023-12-20T12:18:18;9.50;99.90
21602;DHT22;10963;50.934;4.668;2023-12-20T12:20:46;9.50;99.90
21602;DHT22;10963;50.934;4.668;2023-12-20T12:23:22;9.60;99.90
21602;DHT22;10963;50.934;4.668;2023-12-20T12:25:48;9.50;99.90
21602;DHT22;10963;50.934;4.668;2023-12-20T12:28:14;9.50;99.90
21602;DHT22;10963;50.934;4.668;2023-12-20T12:30:42;9.60;99.90
21602;DHT22;10963;50.934;4.668;2023-12-20T12:33:08;9.80;99.90
21602;DHT22;10963;50.934;4.668;2023-12-20T12:35:34;9.80;99.90
21602;DHT22;10963;50.934;4.668;2023-12-20T12:38:00;9.80;99.90
21602;DHT22;10963;50.934;4.668;2023-12-20T12:40:28;9.70;99.90
21602;DHT22;10963;50.934;4.668;2023-12-20T12:42:56;9.80;99.90
21602;DHT22;10963;50.934;4.668;2023-12-20T12:45:24;9.70;99.90
21602;DHT22;10963;50.934;4.668;2023-12-20T12:47:54;9.80;99.90
21602;DHT22;10963;50.934;4.668;2023-12-20T12:50:20;9.90;99.90
21602;DHT22;10963;50.934;4.668;2023-12-20T12:52:49;10.00;99.90
21602;DHT22;10963;50.934;4.668;2023-12-20T12:55:15;9.90;99.90
21602;DHT22;10963;50.934;4.668;2023-12-20T12:57:45;9.80;99.90
21602;DHT22;10963;50.934;4.668;2023-12-20T13:00:11;9.80;99.90
21602;DHT22;10963;50.934;4.668;2023-12-20T13:02:40;9.90;99.90
21602;DHT22;10963;50.934;4.668;2023-12-20T13:05:08;9.70;99.90
21602;DHT22;10963;50.934;4.668;2023-12-20T13:07:34;9.70;99.90
21602;DHT22;10963;50.934;4.668;2023-12-20T13:10:03;9.60;99.90
21602;DHT22;10963;50.934;4.668;2023-12-20T13:12:29;9.70;99.90
21602;DHT22;10963;50.934;4.668;2023-12-20T13:14:55;9.70;99.90
21602;DHT22;10963;50.934;4.668;2023-12-20T13:17:21;9.60;99.90
21602;DHT22;10963;50.934;4.668;2023-12-20T13:19:46;9.70;99.90
21602;DHT22;10963;50.934;4.668;2023-12-20T13:22:15;9.70;99.90
21602;DHT22;10963;50.934;4.668;2023-12-20T13:24:41;9.80;99.90
21602;DHT22;10963;50.934;4.668;2023-12-20T13:27:09;9.90;99.90
21602;DHT22;10963;50.934;4.668;2023-12-20T13:29:34;9.90;99.90
21602;DHT22;10963;50.934;4.668;2023-12-20T13:32:00;9.90;99.90
21602;DHT22;10963;50.934;4.668;2023-12-20T13:34:28;9.90;99.90
21602;DHT22;10963;50.934;4.668;2023-12-20T13:36:56;9.80;99.90
21602;DHT22;10963;50.934;4.668;2023-12-20T13:39:22;9.90;99.90
21602;DHT22;10963;50.934;4.668;2023-12-20T13:41:51;9.90;99.90
21602;DHT22;10963;50.934;4.668;2023-12-20T13:44:16;9.90;99.90
21602;DHT22;10963;50.934;4.668;2023-12-20T13:46:45;9.90;99.90
21602;DHT22;10963;50.934;4.668;2023-12-20T13:49:17;9.80;99.90
21602;DHT22;10963;50.934;4.668;2023-12-20T13:51:43;9.80;99.90
21602;DHT22;10963;50.934;4.668;2023-12-20T13:54:09;9.80;99.90
21602;DHT22;10963;50.934;4.668;2023-12-20T13:56:38;10.00;99.90
21602;DHT22;10963;50.934;4.668;2023-12-20T13:59:04;10.00;99.90
21602;DHT22;10963;50.934;4.668;2023-12-20T14:01:30;10.10;99.90
21602;DHT22;10963;50.934;4.668;2023-12-20T14:04:00;10.10;99.90
21602;DHT22;10963;50.934;4.668;2023-12-20T14:06:26;10.10;99.90
21602;DHT22;10963;50.934;4.668;2023-12-20T14:08:57;10.00;99.90
21602;DHT22;10963;50.934;4.668;2023-12-20T14:11:28;9.90;99.90
21602;DHT22;10963;50.934;4.668;2023-12-20T14:13:56;9.90;99.90
21602;DHT22;10963;50.934;4.668;2023-12-20T14:16:24;9.80;99.90
21602;DHT22;10963;50.934;4.668;2023-12-20T14:18:50;9.80;99.90
21602;DHT22;10963;50.934;4.668;2023-12-20T14:21:17;9.80;99.90
21602;DHT22;10963;50.934;4.668;2023-12-20T14:23:47;9.80;99.90
21602;DHT22;10963;50.934;4.668;2023-12-20T14:26:15;10.00;99.90
21602;DHT22;10963;50.934;4.668;2023-12-20T14:28:43;9.90;99.90
21602;DHT22;10963;50.934;4.668;2023-12-20T14:31:11;10.00;99.90
21602;DHT22;10963;50.934;4.668;2023-12-20T14:33:37;10.10;99.90
21602;DHT22;10963;50.934;4.668;2023-12-20T14:36:07;10.10;99.90
21602;DHT22;10963;50.934;4.668;2023-12-20T14:38:38;10.00;99.90
21602;DHT22;10963;50.934;4.668;2023-12-20T14:41:06;10.10;99.90
21602;DHT22;10963;50.934;4.668;2023-12-20T14:43:34;10.10;99.90
21602;DHT22;10963;50.934;4.668;2023-12-20T14:45:59;10.20;99.90
21602;DHT22;10963;50.934;4.668;2023-12-20T14:48:25;10.10;99.90
21602;DHT22;10963;50.934;4.668;2023-12-20T14:50:53;10.30;99.90
21602;DHT22;10963;50.934;4.668;2023-12-20T14:53:22;10.30;99.90
21602;DHT22;10963;50.934;4.668;2023-12-20T14:55:50;10.30;99.90
21602;DHT22;10963;50.934;4.668;2023-12-20T14:58:18;10.30;99.90
21602;DHT22;10963;50.934;4.668;2023-12-20T15:00:47;10.10;99.90
21602;DHT22;10963;50.934;4.668;2023-12-20T15:03:15;10.10;99.90
21602;DHT22;10963;50.934;4.668;2023-12-20T15:05:41;10.10;99.90
21602;DHT22;10963;50.934;4.668;2023-12-20T15:08:12;10.00;99.90
21602;DHT22;10963;50.934;4.668;2023-12-20T15:10:38;9.90;99.90
21602;DHT22;10963;50.934;4.668;2023-12-20T15:13:03;9.90;99.90
21602;DHT22;10963;50.934;4.668;2023-12-20T15:15:29;9.90;99.90
21602;DHT22;10963;50.934;4.668;2023-12-20T15:17:55;10.00;99.90
21602;DHT22;10963;50.934;4.668;2023-12-20T15:20:23;9.80;99.90
21602;DHT22;10963;50.934;4.668;2023-12-20T15:22:48;9.70;99.90
21602;DHT22;10963;50.934;4.668;2023-12-20T15:25:14;9.80;99.90
21602;DHT22;10963;50.934;4.668;2023-12-20T15:27:49;9.90;99.90
21602;DHT22;10963;50.934;4.668;2023-12-20T15:30:19;10.00;99.90
21602;DHT22;10963;50.934;4.668;2023-12-20T15:32:47;10.00;99.90
21602;DHT22;10963;50.934;4.668;2023-12-20T15:35:13;10.00;99.90
21602;DHT22;10963;50.934;4.668;2023-12-20T15:37:39;10.00;99.90
21602;DHT22;10963;50.934;4.668;2023-12-20T15:40:08;10.00;99.90
21602;DHT22;10963;50.934;4.668;2023-12-20T15:42:38;10.00;99.90
21602;DHT22;10963;50.934;4.668;2023-12-20T15:45:05;10.20;99.90
21602;DHT22;10963;50.934;4.668;2023-12-20T15:47:34;10.20;99.90
21602;DHT22;10963;50.934;4.668;2023-12-20T15:50:05;10.10;99.90